Aviation Digital Data Service (ADDS)

Output produced by METARs form (0419 UTC 19 February 2019)
found at http://www.aviationweather.gov/metar/data/
 
Forecast for: PKMJ (MAJURO WSO AIRPO, MH, US)
Text: PKMJ 182322Z 1900/1924 06025KT P6SM VCSH SCT015 SCT050 BKN120
Forecast period: 0000 UTC 19 February 2019 to 0000 UTC 20 February 2019
Forecast type: FROM: standard forecast or significant change
Winds: from the ENE (60 degrees) at 29 MPH (25 knots; 12.9 m/s)
Visibility: 6 or more miles 10+ km)
Ceiling: 12000 feet AGL
Clouds: scattered clouds at 1500 feet AGL
scattered clouds at 5000 feet AGL
broken clouds at 12000 feet AGL
Weather: VCSH  (showers in vicinity)